Time;durP1;ratioP1;P1;durP2;ratioP2;P2;SDS_P1;SDS_P2;PMS_P1;PMS_P2;Temp;Humidity;BMP_temperature;BMP_pressure;BME280_temperature;BME280_humidity;BME280_pressure;Samples;Min_cycle;Max_cycle;Signal;HPM_P1;HPM_P2
2024/03/06 00:00:00;;;;;;;0.65;0.50;;;;;;;;;;5012236;28;20022;-65
2024/03/06 00:02:26;;;;;;;0.60;0.45;;;;;;;;;;5011945;28;20537;-65
2024/03/06 00:04:53;;;;;;;0.93;0.85;;;;;;;;;;5011952;28;20034;-65
2024/03/06 00:07:19;;;;;;;0.57;0.52;;;;;;;;;;5010940;28;20468;-65
2024/03/06 00:09:45;;;;;;;0.82;0.63;;;;;;;;;;5011976;28;20415;-65
2024/03/06 00:12:11;;;;;;;1.75;0.65;;;;;;;;;;5012111;28;20076;-65
2024/03/06 00:14:37;;;;;;;1.67;0.88;;;;;;;;;;5011870;28;20088;-65
2024/03/06 00:17:04;;;;;;;0.60;0.45;;;;;;;;;;5011744;28;20088;-65
2024/03/06 00:19:30;;;;;;;1.67;0.80;;;;;;;;;;5011889;28;20023;-65
2024/03/06 00:21:56;;;;;;;1.40;0.75;;;;;;;;;;5011709;28;20030;-65
2024/03/06 00:24:22;;;;;;;2.17;1.08;;;;;;;;;;5010281;28;20029;-65
2024/03/06 00:26:52;;;;;;;1.85;0.75;;;;;;;;;;5012695;28;20032;-65
2024/03/06 00:29:18;;;;;;;1.27;0.70;;;;;;;;;;5012730;28;20050;-64
2024/03/06 00:31:44;;;;;;;1.02;0.75;;;;;;;;;;5011224;28;20049;-64
2024/03/06 00:34:13;;;;;;;0.60;0.43;;;;;;;;;;5012528;28;20502;-64
2024/03/06 00:36:43;;;;;;;1.30;0.50;;;;;;;;;;5015022;28;20478;-64
2024/03/06 00:39:09;;;;;;;0.60;0.60;;;;;;;;;;5015559;28;20172;-65
2024/03/06 00:41:36;;;;;;;1.20;0.55;;;;;;;;;;5015481;28;20037;-65
2024/03/06 00:44:07;;;;;;;1.08;0.50;;;;;;;;;;5014855;28;20491;-65
2024/03/06 00:46:33;;;;;;;1.13;0.75;;;;;;;;;;5015219;28;20029;-64
2024/03/06 00:48:59;;;;;;;0.93;0.70;;;;;;;;;;5014884;28;20030;-64
2024/03/06 00:51:25;;;;;;;0.77;0.70;;;;;;;;;;5015124;28;20021;-64
2024/03/06 00:53:51;;;;;;;0.85;0.75;;;;;;;;;;5015028;28;20427;-65
2024/03/06 00:56:17;;;;;;;0.55;0.40;;;;;;;;;;5014665;28;20034;-64
2024/03/06 00:58:43;;;;;;;0.90;0.60;;;;;;;;;;5014945;28;20053;-65
2024/03/06 01:01:09;;;;;;;1.13;0.90;;;;;;;;;;5014429;28;20407;-64
2024/03/06 01:03:44;;;;;;;1.33;0.98;;;;;;;;;;5014358;28;20083;-64
2024/03/06 01:06:10;;;;;;;;;;;;;;;;;;5014954;28;20022;-64
2024/03/06 01:08:36;;;;;;;1.35;0.80;;;;;;;;;;5014530;28;20301;-64
2024/03/06 01:11:04;;;;;;;2.05;0.98;;;;;;;;;;5014368;28;20484;-64
2024/03/06 01:13:30;;;;;;;0.70;0.70;;;;;;;;;;5014016;28;20014;-64
2024/03/06 01:15:56;;;;;;;2.13;1.05;;;;;;;;;;5014177;28;20029;-64
2024/03/06 01:18:22;;;;;;;2.15;0.88;;;;;;;;;;5014500;28;20117;-64
2024/03/06 01:20:48;;;;;;;0.93;0.80;;;;;;;;;;5014051;28;20014;-64
2024/03/06 01:23:23;;;;;;;1.00;0.80;;;;;;;;;;5014041;28;20022;-64
2024/03/06 01:25:49;;;;;;;1.08;0.60;;;;;;;;;;5014094;28;20033;-64
2024/03/06 01:28:15;;;;;;;0.80;0.68;;;;;;;;;;5013969;28;20042;-64
2024/03/06 01:30:41;;;;;;;1.20;0.85;;;;;;;;;;5013774;28;20396;-64
2024/03/06 01:33:07;;;;;;;1.05;0.80;;;;;;;;;;5014152;28;20026;-64
2024/03/06 01:35:33;;;;;;;1.25;0.50;;;;;;;;;;5013669;28;20435;-64
2024/03/06 01:38:01;;;;;;;0.63;0.63;;;;;;;;;;5012887;28;20037;-64
2024/03/06 01:40:29;;;;;;;0.75;0.60;;;;;;;;;;5000987;28;20040;-65
2024/03/06 01:42:55;;;;;;;0.40;0.40;;;;;;;;;;5005154;28;20556;-64
2024/03/06 01:45:21;;;;;;;1.10;0.80;;;;;;;;;;5013551;28;20097;-64
2024/03/06 01:47:47;;;;;;;0.40;0.40;;;;;;;;;;5013939;28;20057;-64
2024/03/06 01:50:13;;;;;;;0.75;0.57;;;;;;;;;;5013824;28;20091;-64
2024/03/06 01:52:40;;;;;;;0.90;0.60;;;;;;;;;;5013468;28;20113;-64
2024/03/06 01:55:07;;;;;;;0.43;0.40;;;;;;;;;;5000337;28;20062;-65
2024/03/06 01:57:34;;;;;;;0.90;0.82;;;;;;;;;;5013195;28;20045;-64
2024/03/06 02:00:01;;;;;;;1.10;0.77;;;;;;;;;;5013514;28;20450;-64
2024/03/06 02:02:27;;;;;;;0.90;0.68;;;;;;;;;;5013155;28;20482;-64
2024/03/06 02:04:57;;;;;;;1.65;0.55;;;;;;;;;;5013425;28;20053;-65
2024/03/06 02:07:24;;;;;;;1.42;0.40;;;;;;;;;;5013319;28;20029;-65
2024/03/06 02:09:50;;;;;;;0.52;0.50;;;;;;;;;;5013521;28;20071;-65
2024/03/06 02:12:16;;;;;;;0.60;0.55;;;;;;;;;;5013638;28;20033;-66
2024/03/06 02:14:52;;;;;;;1.33;0.80;;;;;;;;;;5013043;28;20048;-65
2024/03/06 02:17:18;;;;;;;1.52;0.82;;;;;;;;;;5013099;28;20040;-65
2024/03/06 02:19:44;;;;;;;1.95;0.85;;;;;;;;;;5011794;28;20113;-65
2024/03/06 02:22:11;;;;;;;0.47;0.45;;;;;;;;;;5012508;28;20030;-65
2024/03/06 02:24:37;;;;;;;0.95;0.70;;;;;;;;;;5011376;28;20261;-65
2024/03/06 02:27:06;;;;;;;2.83;1.20;;;;;;;;;;5011647;28;20077;-65
2024/03/06 02:29:34;;;;;;;1.95;0.80;;;;;;;;;;5011377;28;20053;-65
2024/03/06 02:32:02;;;;;;;1.27;0.77;;;;;;;;;;5010409;28;20044;-65
2024/03/06 02:34:29;;;;;;;1.42;0.93;;;;;;;;;;5010235;28;20476;-65
2024/03/06 02:36:56;;;;;;;1.25;1.15;;;;;;;;;;5009673;28;20767;-65
2024/03/06 02:39:22;;;;;;;0.90;0.90;;;;;;;;;;5009402;28;20080;-65
2024/03/06 02:41:48;;;;;;;1.50;0.88;;;;;;;;;;5010754;28;20037;-65
2024/03/06 02:44:15;;;;;;;2.22;1.30;;;;;;;;;;5011519;28;20041;-64
2024/03/06 02:46:41;;;;;;;1.65;1.30;;;;;;;;;;5012021;28;20030;-65
2024/03/06 02:49:07;;;;;;;1.15;0.90;;;;;;;;;;5011077;28;20092;-65
2024/03/06 02:51:33;;;;;;;1.52;1.02;;;;;;;;;;5004421;28;20408;-65
2024/03/06 02:53:59;;;;;;;1.60;1.10;;;;;;;;;;5011718;28;20045;-65
2024/03/06 02:56:25;;;;;;;2.30;1.40;;;;;;;;;;5011630;28;20035;-65
2024/03/06 02:58:51;;;;;;;1.55;1.35;;;;;;;;;;5011911;28;20356;-65
2024/03/06 03:01:17;;;;;;;1.08;1.00;;;;;;;;;;5008509;28;20047;-64
2024/03/06 03:03:44;;;;;;;1.25;1.15;;;;;;;;;;5007332;28;20044;-64
2024/03/06 03:06:10;;;;;;;1.30;1.20;;;;;;;;;;5005359;28;20157;-65
2024/03/06 03:08:37;;;;;;;2.08;1.48;;;;;;;;;;4998884;28;20073;-64
2024/03/06 03:11:03;;;;;;;2.35;1.45;;;;;;;;;;5001218;28;20409;-64
2024/03/06 03:13:30;;;;;;;1.50;1.00;;;;;;;;;;5006236;28;20383;-65
2024/03/06 03:15:56;;;;;;;0.90;0.90;;;;;;;;;;5005663;28;20498;-64
2024/03/06 03:18:22;;;;;;;0.95;0.93;;;;;;;;;;5007107;28;20106;-64
2024/03/06 03:20:48;;;;;;;1.10;0.90;;;;;;;;;;5010951;28;20029;-64
2024/03/06 03:23:21;;;;;;;5.45;1.35;;;;;;;;;;5007236;28;20038;-64
2024/03/06 03:25:47;;;;;;;2.00;1.20;;;;;;;;;;4998119;28;20081;-65
2024/03/06 03:28:13;;;;;;;1.52;1.42;;;;;;;;;;5007891;28;20451;-64
2024/03/06 03:30:39;;;;;;;1.42;1.33;;;;;;;;;;5009428;28;20022;-65
2024/03/06 03:33:05;;;;;;;2.28;1.45;;;;;;;;;;5012157;28;20468;-65
2024/03/06 03:35:32;;;;;;;1.77;1.30;;;;;;;;;;5011985;28;20053;-65
2024/03/06 03:37:58;;;;;;;2.80;1.55;;;;;;;;;;5011882;28;20096;-65
2024/03/06 03:40:24;;;;;;;2.45;1.50;;;;;;;;;;5012206;28;20549;-65
2024/03/06 03:42:50;;;;;;;1.33;1.23;;;;;;;;;;5012058;28;20117;-65
2024/03/06 03:45:16;;;;;;;2.20;1.80;;;;;;;;;;5011751;28;20468;-65
2024/03/06 03:47:42;;;;;;;1.73;1.33;;;;;;;;;;5010716;28;20371;-64
2024/03/06 03:50:09;;;;;;;1.58;1.48;;;;;;;;;;5011832;28;20030;-64
2024/03/06 03:52:35;;;;;;;2.35;2.15;;;;;;;;;;5012085;28;20148;-65
2024/03/06 03:55:01;;;;;;;3.80;1.80;;;;;;;;;;5011834;28;20436;-64
2024/03/06 03:57:28;;;;;;;2.97;2.15;;;;;;;;;;5010599;28;20028;-64
2024/03/06 03:59:54;;;;;;;2.10;1.90;;;;;;;;;;5006663;28;20371;-64
2024/03/06 04:02:20;;;;;;;2.53;2.33;;;;;;;;;;5014178;28;20021;-64
2024/03/06 04:04:46;;;;;;;3.83;3.53;;;;;;;;;;5015496;28;20038;-64
2024/03/06 04:07:30;;;;;;;4.15;3.30;;;;;;;;;;5015692;28;20061;-64
2024/03/06 04:09:56;;;;;;;3.78;3.47;;;;;;;;;;5015522;28;20480;-64
2024/03/06 04:12:22;;;;;;;5.18;4.75;;;;;;;;;;5013537;28;20170;-64
2024/03/06 04:14:48;;;;;;;14.23;5.85;;;;;;;;;;5004417;28;20030;-63
2024/03/06 04:17:15;;;;;;;6.60;5.93;;;;;;;;;;5015207;28;20072;-64
2024/03/06 04:19:40;;;;;;;6.75;6.13;;;;;;;;;;5015160;28;20022;-64
2024/03/06 04:22:08;;;;;;;6.93;6.22;;;;;;;;;;5015013;28;20030;-64
2024/03/06 04:24:34;;;;;;;7.78;5.75;;;;;;;;;;5014841;28;20034;-65
2024/03/06 04:27:00;;;;;;;6.28;5.65;;;;;;;;;;5015171;28;20113;-64
2024/03/06 04:29:29;;;;;;;6.40;5.80;;;;;;;;;;5013575;28;20487;-64
2024/03/06 04:31:55;;;;;;;6.70;5.88;;;;;;;;;;5014998;28;20113;-64
2024/03/06 04:34:49;;;;;;;6.78;6.15;;;;;;;;;;5014784;28;20065;-64
2024/03/06 04:37:15;;;;;;;7.82;7.13;;;;;;;;;;5015156;28;20029;-64
2024/03/06 04:39:41;;;;;;;7.28;6.60;;;;;;;;;;5014878;28;20038;-64
2024/03/06 04:42:07;;;;;;;8.95;6.72;;;;;;;;;;5015151;28;20443;-64
2024/03/06 04:44:36;;;;;;;8.15;6.93;;;;;;;;;;5014734;28;20464;-64
2024/03/06 04:47:03;;;;;;;8.50;6.68;;;;;;;;;;5013519;28;20026;-64
2024/03/06 04:49:33;;;;;;;8.32;7.53;;;;;;;;;;5005817;28;20431;-64
2024/03/06 04:51:59;;;;;;;8.57;7.68;;;;;;;;;;4999826;28;20448;-65
2024/03/06 04:54:25;;;;;;;8.02;7.32;;;;;;;;;;5013550;28;20045;-65
2024/03/06 04:56:51;;;;;;;8.68;7.70;;;;;;;;;;5012978;28;20353;-65
2024/03/06 04:59:17;;;;;;;9.35;8.32;;;;;;;;;;5014623;28;20108;-65
2024/03/06 05:01:44;;;;;;;6.55;5.95;;;;;;;;;;5012396;28;20034;-64
2024/03/06 05:04:11;;;;;;;6.90;6.18;;;;;;;;;;5012632;28;20038;-65
2024/03/06 05:06:37;;;;;;;8.77;6.05;;;;;;;;;;5014413;28;20109;-65
2024/03/06 05:09:04;;;;;;;6.53;5.93;;;;;;;;;;5013057;28;20030;-65
2024/03/06 05:11:31;;;;;;;7.40;6.63;;;;;;;;;;5013752;28;20030;-65
2024/03/06 05:13:58;;;;;;;8.18;7.05;;;;;;;;;;5013958;28;20025;-64
2024/03/06 05:16:26;;;;;;;8.93;7.13;;;;;;;;;;5014098;28;20025;-64
2024/03/06 05:18:52;;;;;;;8.07;7.25;;;;;;;;;;5014160;28;20104;-65
2024/03/06 05:21:18;;;;;;;9.88;6.85;;;;;;;;;;5013953;28;20056;-65
2024/03/06 05:23:44;;;;;;;9.10;7.20;;;;;;;;;;5013827;28;20038;-65
2024/03/06 05:26:10;;;;;;;9.43;6.55;;;;;;;;;;5012953;28;20040;-65
2024/03/06 05:28:36;;;;;;;7.07;5.90;;;;;;;;;;5013851;28;20076;-65
2024/03/06 05:31:16;;;;;;;6.32;5.05;;;;;;;;;;5004979;28;20587;-65
2024/03/06 05:33:42;;;;;;;5.30;4.78;;;;;;;;;;5012489;28;20109;-65
2024/03/06 05:36:08;;;;;;;4.75;3.92;;;;;;;;;;5008707;28;20151;-65
2024/03/06 05:38:34;;;;;;;3.70;3.28;;;;;;;;;;5012562;28;20018;-65
2024/03/06 05:41:00;;;;;;;6.43;3.00;;;;;;;;;;5012027;28;20068;-65
2024/03/06 05:43:27;;;;;;;4.50;3.15;;;;;;;;;;5013446;28;20061;-64
2024/03/06 05:45:53;;;;;;;6.95;3.42;;;;;;;;;;5012245;28;20029;-64
2024/03/06 05:48:19;;;;;;;5.72;2.55;;;;;;;;;;5013594;28;20395;-64
2024/03/06 05:50:45;;;;;;;2.42;1.63;;;;;;;;;;5012061;28;20026;-64
2024/03/06 05:53:11;;;;;;;1.92;1.50;;;;;;;;;;5013457;28;20033;-65
2024/03/06 05:55:37;;;;;;;2.45;1.10;;;;;;;;;;5013797;28;20095;-65
2024/03/06 05:58:05;;;;;;;2.13;1.10;;;;;;;;;;5013481;28;20475;-65
2024/03/06 06:00:31;;;;;;;6.13;3.83;;;;;;;;;;5013461;28;20149;-64
2024/03/06 06:02:57;;;;;;;5.65;5.15;;;;;;;;;;5013236;28;20120;-64
2024/03/06 06:05:24;;;;;;;7.20;6.55;;;;;;;;;;5013510;28;20119;-65
2024/03/06 06:07:50;;;;;;;8.80;6.97;;;;;;;;;;5013223;28;20468;-64
2024/03/06 06:10:16;;;;;;;4.43;4.00;;;;;;;;;;5012943;28;20030;-65
2024/03/06 06:12:45;;;;;;;2.78;1.60;;;;;;;;;;5013433;28;20022;-65
2024/03/06 06:15:11;;;;;;;1.38;0.98;;;;;;;;;;5013344;28;20380;-65
2024/03/06 06:17:43;;;;;;;2.05;1.23;;;;;;;;;;5013354;28;20187;-65
2024/03/06 06:20:14;;;;;;;3.08;0.88;;;;;;;;;;5011719;28;20026;-65
2024/03/06 06:22:40;;;;;;;2.67;1.05;;;;;;;;;;5009442;28;20030;-65
2024/03/06 06:25:07;;;;;;;2.75;0.98;;;;;;;;;;5012653;28;20113;-65
2024/03/06 06:27:33;;;;;;;3.35;1.50;;;;;;;;;;5012467;28;20033;-65
2024/03/06 06:29:59;;;;;;;4.28;2.63;;;;;;;;;;5012192;28;20121;-65
2024/03/06 06:32:31;;;;;;;3.72;2.17;;;;;;;;;;5008734;28;20094;-65
2024/03/06 06:34:57;;;;;;;5.75;2.80;;;;;;;;;;5011329;28;20030;-65
2024/03/06 06:37:23;;;;;;;4.97;3.20;;;;;;;;;;5005994;28;20018;-65
2024/03/06 06:39:49;;;;;;;6.28;3.80;;;;;;;;;;5006196;28;20052;-66
2024/03/06 06:42:15;;;;;;;4.70;3.35;;;;;;;;;;5012336;28;20412;-65
2024/03/06 06:44:41;;;;;;;5.05;3.58;;;;;;;;;;5012603;28;20034;-65
2024/03/06 06:47:07;;;;;;;5.78;2.85;;;;;;;;;;5012704;28;20053;-65
2024/03/06 06:49:33;;;;;;;5.78;2.83;;;;;;;;;;5012887;28;20034;-65
2024/03/06 06:51:59;;;;;;;5.28;2.00;;;;;;;;;;5012777;28;20349;-65
2024/03/06 06:54:25;;;;;;;2.70;1.92;;;;;;;;;;5012447;28;20026;-66
2024/03/06 06:56:51;;;;;;;3.28;1.77;;;;;;;;;;5010911;28;20025;-65
2024/03/06 06:59:19;;;;;;;2.38;1.75;;;;;;;;;;5012785;28;20499;-65
2024/03/06 07:01:49;;;;;;;3.35;1.50;;;;;;;;;;5011141;28;20022;-66
2024/03/06 07:04:17;;;;;;;3.45;1.80;;;;;;;;;;5001811;28;20065;-65
2024/03/06 07:06:43;;;;;;;3.33;1.80;;;;;;;;;;5012274;28;20058;-65
2024/03/06 07:09:09;;;;;;;4.30;1.35;;;;;;;;;;5012652;28;20037;-65
2024/03/06 07:11:35;;;;;;;3.00;1.20;;;;;;;;;;5012558;28;20036;-65
2024/03/06 07:14:01;;;;;;;2.30;1.00;;;;;;;;;;5012372;28;20068;-65
2024/03/06 07:16:27;;;;;;;3.88;1.40;;;;;;;;;;5015955;28;20049;-64
2024/03/06 07:18:53;;;;;;;4.68;1.77;;;;;;;;;;5012135;28;20014;-63
2024/03/06 07:21:19;;;;;;;3.50;1.35;;;;;;;;;;5017397;28;20025;-64
2024/03/06 07:23:45;;;;;;;3.60;1.70;;;;;;;;;;5016457;28;20423;-64
2024/03/06 07:26:11;;;;;;;4.57;1.92;;;;;;;;;;5011049;28;20022;-64
2024/03/06 07:28:37;;;;;;;1.83;1.40;;;;;;;;;;5012264;28;20104;-64
2024/03/06 07:31:03;;;;;;;2.05;1.48;;;;;;;;;;5006441;28;20026;-64
2024/03/06 07:33:33;;;;;;;1.55;1.45;;;;;;;;;;5024780;28;20076;-64
2024/03/06 07:35:59;;;;;;;5.55;1.80;;;;;;;;;;5014968;28;20032;-60
2024/03/06 07:38:25;;;;;;;3.05;1.20;;;;;;;;;;5016541;28;20022;-61
2024/03/06 07:40:51;;;;;;;2.47;1.40;;;;;;;;;;5016065;28;20034;-61
2024/03/06 07:43:30;;;;;;;5.35;2.13;;;;;;;;;;5014623;28;20041;-61
2024/03/06 07:45:56;;;;;;;3.20;1.85;;;;;;;;;;5008077;28;20815;-61
2024/03/06 07:48:22;;;;;;;5.50;1.58;;;;;;;;;;5009694;28;20097;-61
2024/03/06 07:50:48;;;;;;;2.45;2.13;;;;;;;;;;5013123;28;20169;-61
2024/03/06 07:53:13;;;;;;;3.67;2.28;;;;;;;;;;5010815;28;20030;-61
2024/03/06 07:55:40;;;;;;;3.70;1.75;;;;;;;;;;4996633;28;20036;-61
2024/03/06 07:58:08;;;;;;;10.48;2.55;;;;;;;;;;5014126;28;20030;-61
2024/03/06 08:00:34;;;;;;;5.38;2.60;;;;;;;;;;5013756;28;20025;-61
2024/03/06 08:03:00;;;;;;;3.42;2.88;;;;;;;;;;5001462;28;20026;-61
2024/03/06 08:05:27;;;;;;;4.35;2.70;;;;;;;;;;5015590;28;20045;-61
2024/03/06 08:07:53;;;;;;;6.43;3.30;;;;;;;;;;5015989;28;20030;-61
2024/03/06 08:10:19;;;;;;;3.10;2.50;;;;;;;;;;5014259;28;20515;-61
2024/03/06 08:12:47;;;;;;;5.88;3.10;;;;;;;;;;5015476;28;20463;-62
2024/03/06 08:15:14;;;;;;;3.25;2.53;;;;;;;;;;5015320;28;20026;-61
2024/03/06 08:17:43;;;;;;;7.78;2.70;;;;;;;;;;5015558;28;20023;-61
2024/03/06 08:20:10;;;;;;;2.90;2.20;;;;;;;;;;5015256;28;20030;-61
2024/03/06 08:22:39;;;;;;;2.53;1.83;;;;;;;;;;5015238;28;20113;-61
2024/03/06 08:25:09;;;;;;;4.10;1.75;;;;;;;;;;5015429;28;20041;-61
2024/03/06 08:27:36;;;;;;;2.55;1.55;;;;;;;;;;5015145;28;20022;-61
2024/03/06 08:30:04;;;;;;;4.10;1.88;;;;;;;;;;5014960;28;20050;-62
2024/03/06 08:32:30;;;;;;;3.17;1.83;;;;;;;;;;5013660;28;20369;-62
2024/03/06 08:47:12;;;;;;;3.75;1.52;;;;;;;;;;5004795;28;20091;-62
2024/03/06 08:49:41;;;;;;;2.78;1.00;;;;;;;;;;5013481;28;20040;-62
2024/03/06 08:52:07;;;;;;;1.70;1.35;;;;;;;;;;5015105;28;20041;-62
2024/03/06 08:54:33;;;;;;;4.18;2.05;;;;;;;;;;5013372;28;20137;-62
2024/03/06 08:56:59;;;;;;;2.25;1.40;;;;;;;;;;5015100;28;20061;-62
2024/03/06 08:59:25;;;;;;;3.75;1.73;;;;;;;;;;5014791;28;20105;-62
2024/03/06 09:01:55;;;;;;;2.03;1.52;;;;;;;;;;5014563;28;20537;-62
2024/03/06 09:04:24;;;;;;;1.63;1.25;;;;;;;;;;5014876;28;20042;-62
2024/03/06 09:06:51;;;;;;;2.70;1.73;;;;;;;;;;5014567;28;20030;-62
2024/03/06 09:09:17;;;;;;;2.10;1.70;;;;;;;;;;5014694;28;20171;-62
2024/03/06 09:11:43;;;;;;;2.67;2.25;;;;;;;;;;5013023;28;20034;-61
2024/03/06 09:14:15;;;;;;;3.45;1.50;;;;;;;;;;5014221;28;20026;-62
2024/03/06 09:16:41;;;;;;;3.55;2.00;;;;;;;;;;5014333;28;20109;-62
2024/03/06 09:19:07;;;;;;;2.28;2.08;;;;;;;;;;5012868;28;20057;-63
2024/03/06 09:21:33;;;;;;;3.47;2.10;;;;;;;;;;5009621;28;20452;-62
2024/03/06 09:23:59;;;;;;;6.00;3.13;;;;;;;;;;5028850;28;20057;-63
2024/03/06 09:26:25;;;;;;;3.97;2.40;;;;;;;;;;5014131;28;20084;-63
2024/03/06 09:29:10;;;;;;;3.67;3.08;;;;;;;;;;5003757;28;20520;-62
2024/03/06 09:31:39;;;;;;;6.10;2.92;;;;;;;;;;5012113;28;20061;-63
2024/03/06 09:34:05;;;;;;;4.85;3.20;;;;;;;;;;5001117;28;20106;-63
2024/03/06 09:36:32;;;;;;;7.68;3.25;;;;;;;;;;5012758;28;20104;-63
2024/03/06 09:38:59;;;;;;;3.47;2.88;;;;;;;;;;5011836;28;20129;-63
2024/03/06 09:44:02;;;;;;;5.32;3.10;;;;;;;;;;5183710;27;20535;-63
2024/03/06 09:46:29;;;;;;;5.35;3.30;;;;;;;;;;5172232;27;20058;-63
2024/03/06 09:48:55;;;;;;;4.28;3.30;;;;;;;;;;5153416;27;20018;-63
2024/03/06 09:51:22;;;;;;;5.85;4.07;;;;;;;;;;5153270;27;20019;-64
2024/03/06 09:53:52;;;;;;;4.43;3.88;;;;;;;;;;5171768;27;20031;-63
2024/03/06 09:56:20;;;;;;;7.70;4.65;;;;;;;;;;5171969;27;20037;-63
2024/03/06 09:58:46;;;;;;;9.57;5.72;;;;;;;;;;5153123;27;20083;-63
2024/03/06 10:01:14;;;;;;;8.95;5.15;;;;;;;;;;5135635;27;20087;-63
2024/03/06 10:03:43;;;;;;;12.45;8.27;;;;;;;;;;5171727;27;20043;-63
2024/03/06 10:06:09;;;;;;;11.10;8.32;;;;;;;;;;5170668;27;20022;-63
2024/03/06 10:08:37;;;;;;;13.63;8.23;;;;;;;;;;5169903;27;20098;-63
2024/03/06 10:11:04;;;;;;;11.45;8.30;;;;;;;;;;5171611;27;20054;-63
2024/03/06 10:13:30;;;;;;;9.90;8.15;;;;;;;;;;5171183;27;20187;-62
2024/03/06 10:15:57;;;;;;;14.48;7.35;;;;;;;;;;5171388;27;20468;-62
2024/03/06 10:18:27;;;;;;;14.75;7.25;;;;;;;;;;5152334;27;20453;-63
2024/03/06 10:20:53;;;;;;;12.02;9.23;;;;;;;;;;5171061;27;20019;-64
2024/03/06 10:23:19;;;;;;;12.50;8.77;;;;;;;;;;5163463;27;20046;-63
2024/03/06 10:25:46;;;;;;;11.80;8.35;;;;;;;;;;5150546;27;20025;-63
2024/03/06 10:28:13;;;;;;;11.27;8.40;;;;;;;;;;5152466;27;20095;-63
2024/03/06 10:30:43;;;;;;;12.90;10.05;;;;;;;;;;5171251;27;20017;-63
2024/03/06 10:33:09;;;;;;;14.15;10.52;;;;;;;;;;5170814;27;20022;-63
2024/03/06 10:35:37;;;;;;;17.10;10.15;;;;;;;;;;5171006;27;20025;-62
2024/03/06 10:38:07;;;;;;;12.95;9.63;;;;;;;;;;5170949;27;20018;-62
2024/03/06 10:40:37;;;;;;;13.13;9.10;;;;;;;;;;5170771;27;20076;-62
2024/03/06 10:43:05;;;;;;;16.42;9.65;;;;;;;;;;5162388;27;20482;-62
2024/03/06 10:45:34;;;;;;;11.45;9.25;;;;;;;;;;5151820;27;20046;-62
2024/03/06 10:48:01;;;;;;;10.13;7.90;;;;;;;;;;5169903;27;20081;-62
2024/03/06 10:50:31;;;;;;;9.50;8.35;;;;;;;;;;5170107;27;20036;-62
2024/03/06 10:52:59;;;;;;;12.73;9.52;;;;;;;;;;5170862;27;20079;-63
2024/03/06 10:55:26;;;;;;;11.88;8.98;;;;;;;;;;5155524;27;20018;-63
2024/03/06 10:57:53;;;;;;;14.68;9.98;;;;;;;;;;5156392;27;20142;-63
2024/03/06 11:00:19;;;;;;;9.98;8.68;;;;;;;;;;5156439;27;20023;-63
2024/03/06 11:02:50;;;;;;;13.57;9.25;;;;;;;;;;5156534;27;20038;-63
2024/03/06 11:05:29;;;;;;;11.77;8.75;;;;;;;;;;5156709;27;20015;-63
2024/03/06 11:07:55;;;;;;;14.40;9.48;;;;;;;;;;5156816;27;20053;-63
2024/03/06 11:10:31;;;;;;;12.30;9.45;;;;;;;;;;5156561;27;20015;-63
2024/03/06 11:12:58;;;;;;;14.75;9.90;;;;;;;;;;5138233;27;20031;-63
2024/03/06 11:15:24;;;;;;;15.18;10.18;;;;;;;;;;5156602;27;20165;-63
2024/03/06 11:17:50;;;;;;;15.40;10.07;;;;;;;;;;5156795;27;20027;-63
2024/03/06 11:20:17;;;;;;;13.85;11.02;;;;;;;;;;5156306;27;20037;-59
2024/03/06 11:22:59;;;;;;;13.07;8.52;;;;;;;;;;5137774;27;20026;-59
2024/03/06 11:25:43;;;;;;;13.48;9.18;;;;;;;;;;5156602;27;20019;-58
2024/03/06 11:28:19;;;;;;;11.50;8.18;;;;;;;;;;5156583;27;20019;-60
2024/03/06 11:30:46;;;;;;;10.20;9.20;;;;;;;;;;5156413;27;20332;-60
2024/03/06 11:33:16;;;;;;;8.75;7.60;;;;;;;;;;5156249;27;20541;-59
2024/03/06 11:36:01;;;;;;;11.18;8.50;;;;;;;;;;5156246;27;20026;-60
2024/03/06 11:38:27;;;;;;;;;;;;;;;;;;5156789;27;20080;-62
2024/03/06 11:40:53;;;;;;;12.35;8.32;;;;;;;;;;5155709;27;19903;-62
2024/03/06 11:43:26;;;;;;;11.82;7.38;;;;;;;;;;5155627;27;20117;-62
2024/03/06 11:45:53;;;;;;;9.82;7.28;;;;;;;;;;5156173;27;20018;-62
2024/03/06 11:48:21;;;;;;;9.57;6.85;;;;;;;;;;5156272;27;20022;-62
2024/03/06 11:51:04;;;;;;;9.32;6.32;;;;;;;;;;5155824;27;20038;-62
2024/03/06 11:53:31;;;;;;;9.60;6.88;;;;;;;;;;5155920;27;20364;-62
2024/03/06 11:55:57;;;;;;;9.85;6.88;;;;;;;;;;5137120;27;20110;-62
2024/03/06 11:58:23;;;;;;;13.13;5.97;;;;;;;;;;5155922;27;20087;-62
2024/03/06 12:00:49;;;;;;;9.32;6.03;;;;;;;;;;5155845;27;20059;-62
2024/03/06 12:03:16;;;;;;;9.57;4.95;;;;;;;;;;5154687;27;20045;-63
2024/03/06 12:05:42;;;;;;;8.88;5.72;;;;;;;;;;5150042;27;20521;-61
2024/03/06 12:08:08;;;;;;;10.02;6.00;;;;;;;;;;5151949;27;20046;-62
2024/03/06 12:10:37;;;;;;;9.75;6.25;;;;;;;;;;5151351;27;20027;-63
2024/03/06 12:13:04;;;;;;;8.45;6.03;;;;;;;;;;5133428;27;20045;-62
2024/03/06 12:18:47;;;;;;;5.72;4.35;;;;;;;;;;5150521;27;20037;-62
2024/03/06 12:21:15;;;;;;;10.20;5.25;;;;;;;;;;5153462;27;20049;-62
2024/03/06 12:23:41;;;;;;;5.95;4.50;;;;;;;;;;5155343;27;20057;-62
2024/03/06 12:26:11;;;;;;;9.50;4.68;;;;;;;;;;5154816;27;20476;-63
2024/03/06 12:28:37;;;;;;;6.95;5.13;;;;;;;;;;5155096;27;20015;-63
2024/03/06 12:31:04;;;;;;;12.52;6.68;;;;;;;;;;5155083;27;20042;-63
2024/03/06 12:33:30;;;;;;;6.07;5.30;;;;;;;;;;5136414;27;20090;-63
2024/03/06 12:36:02;;;;;;;7.00;4.32;;;;;;;;;;5154895;27;20019;-63
2024/03/06 12:38:32;;;;;;;7.93;4.20;;;;;;;;;;5142712;27;20023;-63
2024/03/06 12:40:58;;;;;;;5.50;3.58;;;;;;;;;;5153514;27;20022;-63
2024/03/06 12:43:24;;;;;;;8.07;4.22;;;;;;;;;;5154415;27;20047;-62
2024/03/06 12:45:51;;;;;;;6.85;3.55;;;;;;;;;;5154533;27;20038;-63
2024/03/06 12:48:17;;;;;;;5.55;3.42;;;;;;;;;;5154767;27;20023;-63
2024/03/06 12:50:44;;;;;;;6.05;2.95;;;;;;;;;;5154361;27;20023;-63
2024/03/06 12:53:10;;;;;;;3.90;2.10;;;;;;;;;;5135960;27;20432;-63
2024/03/06 12:55:45;;;;;;;2.47;1.52;;;;;;;;;;5141876;27;20090;-63
2024/03/06 12:58:11;;;;;;;1.90;0.90;;;;;;;;;;5154621;27;20071;-63
2024/03/06 13:00:37;;;;;;;2.67;0.90;;;;;;;;;;5154834;27;20448;-63
2024/03/06 13:03:04;;;;;;;1.65;0.68;;;;;;;;;;5154479;27;20026;-63
2024/03/06 13:05:31;;;;;;;2.38;0.80;;;;;;;;;;5154565;27;20029;-63
2024/03/06 13:07:57;;;;;;;1.38;0.70;;;;;;;;;;5154699;27;20026;-63
2024/03/06 13:10:23;;;;;;;5.32;1.10;;;;;;;;;;5154857;27;20109;-63
2024/03/06 13:12:49;;;;;;;1.02;0.20;;;;;;;;;;5135763;27;20467;-63
2024/03/06 13:15:15;;;;;;;1.50;0.50;;;;;;;;;;5154378;27;20037;-63
2024/03/06 13:17:41;;;;;;;1.08;0.73;;;;;;;;;;5135596;27;20034;-63
2024/03/06 13:20:14;;;;;;;0.82;0.30;;;;;;;;;;5118620;27;20011;-63
2024/03/06 13:22:40;;;;;;;1.33;0.40;;;;;;;;;;5135493;27;20027;-63
2024/03/06 13:28:09;;;;;;;0.20;0.10;;;;;;;;;;5149833;27;20029;-63
2024/03/06 13:30:35;;;;;;;0.70;0.50;;;;;;;;;;5139746;27;20101;-63
2024/03/06 13:33:01;;;;;;;1.30;0.57;;;;;;;;;;5154160;27;20026;-63
2024/03/06 13:35:28;;;;;;;0.25;0.20;;;;;;;;;;5154170;27;20071;-63
2024/03/06 13:37:54;;;;;;;0.55;0.20;;;;;;;;;;5154282;27;20126;-63
2024/03/06 13:40:20;;;;;;;1.05;0.73;;;;;;;;;;5154161;27;20026;-63
2024/03/06 13:42:46;;;;;;;0.60;0.50;;;;;;;;;;5153637;27;20178;-62
2024/03/06 13:45:13;;;;;;;1.20;0.50;;;;;;;;;;5135230;27;20054;-62
2024/03/06 13:47:40;;;;;;;1.60;0.30;;;;;;;;;;5139683;27;20027;-62
2024/03/06 13:50:10;;;;;;;0.28;0.20;;;;;;;;;;5153922;27;20051;-62
2024/03/06 13:55:40;;;;;;;2.97;0.32;;;;;;;;;;5153347;27;20383;-65
2024/03/06 13:58:06;;;;;;;1.05;0.40;;;;;;;;;;5128578;27;20500;-68
2024/03/06 14:00:35;;;;;;;1.80;0.50;;;;;;;;;;5153882;27;20023;-68
2024/03/06 14:03:01;;;;;;;2.50;0.60;;;;;;;;;;5153595;27;20036;-69
2024/03/06 14:05:27;;;;;;;1.33;0.82;;;;;;;;;;5151778;27;20500;-68
2024/03/06 14:07:59;;;;;;;1.23;0.50;;;;;;;;;;5144693;27;20384;-68
2024/03/06 14:10:26;;;;;;;1.45;0.60;;;;;;;;;;5153553;27;20023;-68
2024/03/06 14:12:52;;;;;;;2.83;0.57;;;;;;;;;;5151632;27;20408;-68
2024/03/06 14:18:23;;;;;;;0.82;0.57;;;;;;;;;;5148303;27;20037;-68
2024/03/06 14:20:49;;;;;;;0.85;0.60;;;;;;;;;;5152907;27;20030;-68
2024/03/06 14:23:15;;;;;;;3.22;1.38;;;;;;;;;;5133616;27;20095;-68
2024/03/06 14:25:41;;;;;;;1.25;0.80;;;;;;;;;;5147094;27;20019;-68
2024/03/06 14:28:07;;;;;;;2.28;0.80;;;;;;;;;;5129102;27;20093;-68
2024/03/06 14:30:33;;;;;;;2.95;0.80;;;;;;;;;;5140054;27;20023;-69
2024/03/06 14:32:59;;;;;;;1.77;0.77;;;;;;;;;;5148080;27;20027;-69
2024/03/06 14:35:25;;;;;;;3.13;0.80;;;;;;;;;;5157470;27;20031;-69
2024/03/06 14:37:51;;;;;;;2.55;1.08;;;;;;;;;;5148531;27;20023;-70
2024/03/06 14:40:17;;;;;;;3.45;1.00;;;;;;;;;;5121954;27;20031;-70
2024/03/06 14:42:44;;;;;;;1.45;1.10;;;;;;;;;;5147008;27;20353;-69
2024/03/06 14:45:10;;;;;;;5.07;2.78;;;;;;;;;;5156405;27;20019;-69
2024/03/06 14:47:36;;;;;;;3.92;1.70;;;;;;;;;;5156677;27;20023;-69
2024/03/06 14:50:02;;;;;;;13.75;8.02;;;;;;;;;;5157129;27;20038;-70
2024/03/06 14:52:28;;;;;;;22.90;14.18;;;;;;;;;;5145852;27;20084;-71
2024/03/06 14:54:54;;;;;;;10.98;7.75;;;;;;;;;;5156155;27;20046;-70
2024/03/06 14:57:21;;;;;;;11.90;7.70;;;;;;;;;;5152577;27;20131;-70
2024/03/06 14:59:47;;;;;;;6.18;2.58;;;;;;;;;;5153013;27;20094;-70
2024/03/06 15:02:14;;;;;;;2.95;1.98;;;;;;;;;;5156934;27;20105;-70
2024/03/06 15:04:40;;;;;;;5.00;1.83;;;;;;;;;;5157142;27;20026;-70
2024/03/06 15:07:07;;;;;;;5.85;1.50;;;;;;;;;;5156886;27;20376;-70